METAR Data
IDs: Format: Raw Decoded Include TAF

Data at: 1345 UTC 20 Oct 2021

KALN 201250Z VRB03KT 10SM CLR 09/09 A3011